sensor_id;sensor_type;location;lat;lon;timestamp;P1;durP1;ratioP1;P2;durP2;ratioP2
68653;SDS011;55636;51.108;13.622;2023-04-25T00:00:50;3.30;;;2.80;;
68653;SDS011;55636;51.108;13.622;2023-04-25T00:01:54;4.07;;;3.10;;
68653;SDS011;55636;51.108;13.622;2023-04-25T00:02:56;3.57;;;2.90;;
68653;SDS011;55636;51.108;13.622;2023-04-25T00:03:59;3.23;;;2.70;;
68653;SDS011;55636;51.108;13.622;2023-04-25T00:05:03;3.03;;;2.70;;
68653;SDS011;55636;51.108;13.622;2023-04-25T00:06:07;3.80;;;3.00;;
68653;SDS011;55636;51.108;13.622;2023-04-25T00:07:10;4.13;;;2.90;;
68653;SDS011;55636;51.108;13.622;2023-04-25T00:08:13;6.10;;;3.53;;
68653;SDS011;55636;51.108;13.622;2023-04-25T00:09:15;3.80;;;2.77;;
68653;SDS011;55636;51.108;13.622;2023-04-25T00:10:18;3.73;;;2.70;;
68653;SDS011;55636;51.108;13.622;2023-04-25T00:11:21;4.23;;;2.70;;
68653;SDS011;55636;51.108;13.622;2023-04-25T00:12:23;4.23;;;2.87;;
68653;SDS011;55636;51.108;13.622;2023-04-25T00:13:26;2.97;;;2.63;;
68653;SDS011;55636;51.108;13.622;2023-04-25T00:14:29;3.23;;;2.90;;
68653;SDS011;55636;51.108;13.622;2023-04-25T00:15:31;3.17;;;2.83;;
68653;SDS011;55636;51.108;13.622;2023-04-25T00:16:33;3.10;;;2.80;;
68653;SDS011;55636;51.108;13.622;2023-04-25T00:17:37;3.00;;;2.70;;
68653;SDS011;55636;51.108;13.622;2023-04-25T00:18:41;3.53;;;2.97;;
68653;SDS011;55636;51.108;13.622;2023-04-25T00:19:44;4.00;;;2.90;;
68653;SDS011;55636;51.108;13.622;2023-04-25T00:20:48;3.00;;;2.67;;
68653;SDS011;55636;51.108;13.622;2023-04-25T00:21:50;4.67;;;3.33;;
68653;SDS011;55636;51.108;13.622;2023-04-25T00:22:52;5.47;;;3.27;;
68653;SDS011;55636;51.108;13.622;2023-04-25T00:23:55;4.50;;;3.03;;
68653;SDS011;55636;51.108;13.622;2023-04-25T00:24:58;3.53;;;2.90;;
68653;SDS011;55636;51.108;13.622;2023-04-25T00:26:02;3.40;;;3.10;;
68653;SDS011;55636;51.108;13.622;2023-04-25T00:27:04;3.90;;;2.97;;
68653;SDS011;55636;51.108;13.622;2023-04-25T00:28:07;4.67;;;3.07;;
68653;SDS011;55636;51.108;13.622;2023-04-25T00:29:09;3.87;;;3.13;;
68653;SDS011;55636;51.108;13.622;2023-04-25T00:30:12;4.17;;;2.87;;
68653;SDS011;55636;51.108;13.622;2023-04-25T00:31:15;3.17;;;2.87;;
68653;SDS011;55636;51.108;13.622;2023-04-25T00:32:17;3.40;;;3.10;;
68653;SDS011;55636;51.108;13.622;2023-04-25T00:33:19;3.40;;;2.80;;
68653;SDS011;55636;51.108;13.622;2023-04-25T00:34:22;4.73;;;3.23;;
68653;SDS011;55636;51.108;13.622;2023-04-25T00:35:24;3.10;;;2.73;;
68653;SDS011;55636;51.108;13.622;2023-04-25T00:36:26;4.23;;;3.30;;
68653;SDS011;55636;51.108;13.622;2023-04-25T00:37:29;3.60;;;3.00;;
68653;SDS011;55636;51.108;13.622;2023-04-25T00:38:32;3.20;;;2.90;;
68653;SDS011;55636;51.108;13.622;2023-04-25T00:39:34;4.33;;;2.97;;
68653;SDS011;55636;51.108;13.622;2023-04-25T00:40:36;3.70;;;3.20;;
68653;SDS011;55636;51.108;13.622;2023-04-25T00:41:39;3.03;;;2.73;;
68653;SDS011;55636;51.108;13.622;2023-04-25T00:42:42;3.20;;;2.73;;
68653;SDS011;55636;51.108;13.622;2023-04-25T00:43:44;4.13;;;2.73;;
68653;SDS011;55636;51.108;13.622;2023-04-25T00:44:47;3.43;;;3.03;;
68653;SDS011;55636;51.108;13.622;2023-04-25T00:45:50;4.23;;;3.20;;
68653;SDS011;55636;51.108;13.622;2023-04-25T00:46:53;3.40;;;3.10;;
68653;SDS011;55636;51.108;13.622;2023-04-25T00:47:56;3.90;;;3.00;;
68653;SDS011;55636;51.108;13.622;2023-04-25T00:48:59;3.77;;;3.17;;
68653;SDS011;55636;51.108;13.622;2023-04-25T00:50:01;4.63;;;3.10;;
68653;SDS011;55636;51.108;13.622;2023-04-25T00:51:03;4.90;;;3.20;;
68653;SDS011;55636;51.108;13.622;2023-04-25T00:52:06;4.37;;;3.13;;
68653;SDS011;55636;51.108;13.622;2023-04-25T00:53:09;3.40;;;3.10;;
68653;SDS011;55636;51.108;13.622;2023-04-25T00:54:12;3.80;;;3.23;;
68653;SDS011;55636;51.108;13.622;2023-04-25T00:55:15;3.67;;;3.10;;
68653;SDS011;55636;51.108;13.622;2023-04-25T00:56:17;3.20;;;2.90;;
68653;SDS011;55636;51.108;13.622;2023-04-25T00:57:20;3.50;;;3.20;;
68653;SDS011;55636;51.108;13.622;2023-04-25T00:58:23;3.60;;;3.30;;
68653;SDS011;55636;51.108;13.622;2023-04-25T00:59:26;3.47;;;3.17;;
68653;SDS011;55636;51.108;13.622;2023-04-25T01:00:30;3.37;;;3.07;;
68653;SDS011;55636;51.108;13.622;2023-04-25T01:01:32;4.53;;;3.20;;
68653;SDS011;55636;51.108;13.622;2023-04-25T01:02:35;4.37;;;3.37;;
68653;SDS011;55636;51.108;13.622;2023-04-25T01:03:39;3.37;;;3.00;;
68653;SDS011;55636;51.108;13.622;2023-04-25T01:04:43;3.50;;;3.20;;
68653;SDS011;55636;51.108;13.622;2023-04-25T01:05:46;3.60;;;3.30;;
68653;SDS011;55636;51.108;13.622;2023-04-25T01:06:49;4.03;;;3.50;;
68653;SDS011;55636;51.108;13.622;2023-04-25T01:07:53;4.50;;;3.33;;
68653;SDS011;55636;51.108;13.622;2023-04-25T01:08:55;3.50;;;3.13;;
68653;SDS011;55636;51.108;13.622;2023-04-25T01:09:58;4.50;;;3.30;;
68653;SDS011;55636;51.108;13.622;2023-04-25T01:11:01;3.73;;;3.40;;
68653;SDS011;55636;51.108;13.622;2023-04-25T01:12:03;3.67;;;3.23;;
68653;SDS011;55636;51.108;13.622;2023-04-25T01:13:06;3.27;;;2.97;;
68653;SDS011;55636;51.108;13.622;2023-04-25T01:14:08;3.67;;;3.20;;
68653;SDS011;55636;51.108;13.622;2023-04-25T01:15:11;3.43;;;3.00;;
68653;SDS011;55636;51.108;13.622;2023-04-25T01:16:13;3.60;;;3.20;;
68653;SDS011;55636;51.108;13.622;2023-04-25T01:17:17;4.03;;;3.10;;
68653;SDS011;55636;51.108;13.622;2023-04-25T01:18:20;3.63;;;3.23;;
68653;SDS011;55636;51.108;13.622;2023-04-25T01:19:23;4.20;;;3.27;;
68653;SDS011;55636;51.108;13.622;2023-04-25T01:20:26;4.53;;;3.50;;
68653;SDS011;55636;51.108;13.622;2023-04-25T01:21:31;3.67;;;3.30;;
68653;SDS011;55636;51.108;13.622;2023-04-25T01:22:34;3.80;;;3.03;;
68653;SDS011;55636;51.108;13.622;2023-04-25T01:23:37;4.50;;;3.17;;
68653;SDS011;55636;51.108;13.622;2023-04-25T01:24:43;4.13;;;3.17;;
68653;SDS011;55636;51.108;13.622;2023-04-25T01:25:47;3.90;;;3.50;;
68653;SDS011;55636;51.108;13.622;2023-04-25T01:26:50;3.70;;;3.30;;
68653;SDS011;55636;51.108;13.622;2023-04-25T01:27:58;8.40;;;3.37;;
68653;SDS011;55636;51.108;13.622;2023-04-25T01:29:01;3.80;;;3.30;;
68653;SDS011;55636;51.108;13.622;2023-04-25T01:30:05;3.80;;;3.17;;
68653;SDS011;55636;51.108;13.622;2023-04-25T01:31:09;4.30;;;3.37;;
68653;SDS011;55636;51.108;13.622;2023-04-25T01:32:13;4.27;;;3.30;;
68653;SDS011;55636;51.108;13.622;2023-04-25T01:33:16;4.43;;;3.30;;
68653;SDS011;55636;51.108;13.622;2023-04-25T01:34:19;4.73;;;3.67;;
68653;SDS011;55636;51.108;13.622;2023-04-25T01:35:21;4.80;;;3.77;;
68653;SDS011;55636;51.108;13.622;2023-04-25T01:36:28;3.77;;;3.20;;
68653;SDS011;55636;51.108;13.622;2023-04-25T01:37:30;4.97;;;3.43;;
68653;SDS011;55636;51.108;13.622;2023-04-25T01:38:33;4.13;;;3.53;;
68653;SDS011;55636;51.108;13.622;2023-04-25T01:39:35;4.10;;;3.40;;
68653;SDS011;55636;51.108;13.622;2023-04-25T01:40:38;4.10;;;3.70;;
68653;SDS011;55636;51.108;13.622;2023-04-25T01:41:42;4.10;;;3.70;;
68653;SDS011;55636;51.108;13.622;2023-04-25T01:42:45;5.53;;;3.73;;
68653;SDS011;55636;51.108;13.622;2023-04-25T01:43:47;4.47;;;3.77;;
68653;SDS011;55636;51.108;13.622;2023-04-25T01:44:51;4.63;;;3.60;;
68653;SDS011;55636;51.108;13.622;2023-04-25T01:45:53;3.87;;;3.40;;
68653;SDS011;55636;51.108;13.622;2023-04-25T01:46:56;4.13;;;3.40;;
68653;SDS011;55636;51.108;13.622;2023-04-25T01:48:00;4.77;;;3.50;;
68653;SDS011;55636;51.108;13.622;2023-04-25T01:49:02;4.87;;;3.57;;
68653;SDS011;55636;51.108;13.622;2023-04-25T01:50:07;4.00;;;3.40;;
68653;SDS011;55636;51.108;13.622;2023-04-25T01:51:11;4.43;;;3.47;;
68653;SDS011;55636;51.108;13.622;2023-04-25T01:52:14;4.43;;;3.50;;
68653;SDS011;55636;51.108;13.622;2023-04-25T01:53:20;4.30;;;3.53;;
68653;SDS011;55636;51.108;13.622;2023-04-25T01:54:24;4.43;;;4.03;;
68653;SDS011;55636;51.108;13.622;2023-04-25T01:55:27;4.90;;;3.73;;
68653;SDS011;55636;51.108;13.622;2023-04-25T01:56:40;4.67;;;3.73;;
68653;SDS011;55636;51.108;13.622;2023-04-25T01:57:45;4.13;;;3.70;;
68653;SDS011;55636;51.108;13.622;2023-04-25T01:58:48;4.13;;;3.33;;
68653;SDS011;55636;51.108;13.622;2023-04-25T02:00:00;4.63;;;3.80;;
68653;SDS011;55636;51.108;13.622;2023-04-25T02:01:14;5.10;;;3.60;;
68653;SDS011;55636;51.108;13.622;2023-04-25T02:02:22;4.40;;;3.53;;
68653;SDS011;55636;51.108;13.622;2023-04-25T02:03:25;3.97;;;3.57;;
68653;SDS011;55636;51.108;13.622;2023-04-25T02:04:29;4.53;;;3.87;;
68653;SDS011;55636;51.108;13.622;2023-04-25T02:05:35;4.27;;;3.53;;
68653;SDS011;55636;51.108;13.622;2023-04-25T02:06:41;5.07;;;4.07;;
68653;SDS011;55636;51.108;13.622;2023-04-25T02:07:43;4.33;;;3.60;;
68653;SDS011;55636;51.108;13.622;2023-04-25T02:08:46;4.97;;;3.90;;
68653;SDS011;55636;51.108;13.622;2023-04-25T02:09:53;5.60;;;3.63;;
68653;SDS011;55636;51.108;13.622;2023-04-25T02:10:57;6.07;;;3.90;;
68653;SDS011;55636;51.108;13.622;2023-04-25T02:12:07;4.17;;;3.70;;
68653;SDS011;55636;51.108;13.622;2023-04-25T02:13:35;4.50;;;3.50;;
68653;SDS011;55636;51.108;13.622;2023-04-25T02:14:48;5.40;;;4.00;;
68653;SDS011;55636;51.108;13.622;2023-04-25T02:15:59;4.17;;;3.50;;
68653;SDS011;55636;51.108;13.622;2023-04-25T02:17:02;5.10;;;3.87;;
68653;SDS011;55636;51.108;13.622;2023-04-25T02:18:05;4.27;;;3.70;;
68653;SDS011;55636;51.108;13.622;2023-04-25T02:19:08;4.20;;;3.77;;
68653;SDS011;55636;51.108;13.622;2023-04-25T02:20:11;5.53;;;4.20;;
68653;SDS011;55636;51.108;13.622;2023-04-25T02:21:14;5.03;;;3.80;;
68653;SDS011;55636;51.108;13.622;2023-04-25T02:22:17;4.37;;;3.97;;
68653;SDS011;55636;51.108;13.622;2023-04-25T02:23:20;5.33;;;4.10;;
68653;SDS011;55636;51.108;13.622;2023-04-25T02:24:23;4.23;;;3.73;;
68653;SDS011;55636;51.108;13.622;2023-04-25T02:25:25;4.30;;;3.90;;
68653;SDS011;55636;51.108;13.622;2023-04-25T02:26:28;3.90;;;3.50;;
68653;SDS011;55636;51.108;13.622;2023-04-25T02:27:30;4.30;;;3.83;;
68653;SDS011;55636;51.108;13.622;2023-04-25T02:28:33;5.47;;;4.10;;
68653;SDS011;55636;51.108;13.622;2023-04-25T02:29:38;4.20;;;3.80;;
68653;SDS011;55636;51.108;13.622;2023-04-25T02:30:41;4.87;;;3.83;;
68653;SDS011;55636;51.108;13.622;2023-04-25T02:31:43;5.13;;;4.10;;
68653;SDS011;55636;51.108;13.622;2023-04-25T02:32:46;6.40;;;4.00;;
68653;SDS011;55636;51.108;13.622;2023-04-25T02:33:48;4.83;;;3.97;;
68653;SDS011;55636;51.108;13.622;2023-04-25T02:34:51;5.50;;;3.90;;
68653;SDS011;55636;51.108;13.622;2023-04-25T02:35:54;4.60;;;3.77;;
68653;SDS011;55636;51.108;13.622;2023-04-25T02:36:56;4.33;;;3.93;;
68653;SDS011;55636;51.108;13.622;2023-04-25T02:37:58;4.93;;;3.67;;
68653;SDS011;55636;51.108;13.622;2023-04-25T02:39:01;4.83;;;4.10;;
68653;SDS011;55636;51.108;13.622;2023-04-25T02:40:05;5.43;;;3.70;;
68653;SDS011;55636;51.108;13.622;2023-04-25T02:41:08;4.40;;;3.90;;
68653;SDS011;55636;51.108;13.622;2023-04-25T02:42:11;5.43;;;4.07;;
68653;SDS011;55636;51.108;13.622;2023-04-25T02:43:13;6.37;;;4.20;;
68653;SDS011;55636;51.108;13.622;2023-04-25T02:44:15;4.83;;;3.97;;
68653;SDS011;55636;51.108;13.622;2023-04-25T02:45:19;4.87;;;4.00;;
68653;SDS011;55636;51.108;13.622;2023-04-25T02:46:22;4.87;;;4.37;;
68653;SDS011;55636;51.108;13.622;2023-04-25T02:47:40;5.13;;;4.17;;
68653;SDS011;55636;51.108;13.622;2023-04-25T02:48:42;5.87;;;4.23;;
68653;SDS011;55636;51.108;13.622;2023-04-25T02:49:45;5.83;;;4.10;;
68653;SDS011;55636;51.108;13.622;2023-04-25T02:50:48;4.77;;;4.37;;
68653;SDS011;55636;51.108;13.622;2023-04-25T02:51:50;5.77;;;4.60;;
68653;SDS011;55636;51.108;13.622;2023-04-25T02:52:53;5.27;;;4.27;;
68653;SDS011;55636;51.108;13.622;2023-04-25T02:54:00;4.93;;;4.40;;
68653;SDS011;55636;51.108;13.622;2023-04-25T02:55:03;5.77;;;4.40;;
68653;SDS011;55636;51.108;13.622;2023-04-25T02:56:08;4.97;;;4.47;;
68653;SDS011;55636;51.108;13.622;2023-04-25T02:57:10;7.20;;;4.53;;
68653;SDS011;55636;51.108;13.622;2023-04-25T02:58:13;5.00;;;4.47;;
68653;SDS011;55636;51.108;13.622;2023-04-25T02:59:20;7.30;;;4.70;;
68653;SDS011;55636;51.108;13.622;2023-04-25T03:00:23;5.20;;;4.60;;
68653;SDS011;55636;51.108;13.622;2023-04-25T03:01:25;5.20;;;4.00;;
68653;SDS011;55636;51.108;13.622;2023-04-25T03:02:28;5.10;;;4.27;;
68653;SDS011;55636;51.108;13.622;2023-04-25T03:03:30;5.30;;;4.10;;
68653;SDS011;55636;51.108;13.622;2023-04-25T03:04:33;6.20;;;4.70;;
68653;SDS011;55636;51.108;13.622;2023-04-25T03:05:36;5.53;;;4.60;;
68653;SDS011;55636;51.108;13.622;2023-04-25T03:06:38;5.30;;;4.40;;
68653;SDS011;55636;51.108;13.622;2023-04-25T03:07:43;5.23;;;4.10;;
68653;SDS011;55636;51.108;13.622;2023-04-25T03:08:47;7.07;;;4.27;;
68653;SDS011;55636;51.108;13.622;2023-04-25T03:09:49;6.37;;;4.60;;
68653;SDS011;55636;51.108;13.622;2023-04-25T03:10:51;5.13;;;4.40;;
68653;SDS011;55636;51.108;13.622;2023-04-25T03:11:58;6.40;;;4.47;;
68653;SDS011;55636;51.108;13.622;2023-04-25T03:13:02;5.17;;;4.40;;
68653;SDS011;55636;51.108;13.622;2023-04-25T03:14:04;7.23;;;4.50;;
68653;SDS011;55636;51.108;13.622;2023-04-25T03:15:07;4.90;;;4.37;;
68653;SDS011;55636;51.108;13.622;2023-04-25T03:16:10;5.63;;;4.40;;
68653;SDS011;55636;51.108;13.622;2023-04-25T03:17:12;7.10;;;4.90;;
68653;SDS011;55636;51.108;13.622;2023-04-25T03:18:15;4.70;;;4.30;;
68653;SDS011;55636;51.108;13.622;2023-04-25T03:19:17;4.80;;;4.30;;
68653;SDS011;55636;51.108;13.622;2023-04-25T03:20:20;5.07;;;4.40;;
68653;SDS011;55636;51.108;13.622;2023-04-25T03:21:22;5.43;;;4.93;;
68653;SDS011;55636;51.108;13.622;2023-04-25T03:22:25;7.53;;;4.67;;
68653;SDS011;55636;51.108;13.622;2023-04-25T03:23:28;5.83;;;4.63;;
68653;SDS011;55636;51.108;13.622;2023-04-25T03:24:31;6.23;;;4.50;;
68653;SDS011;55636;51.108;13.622;2023-04-25T03:25:33;5.40;;;4.60;;
68653;SDS011;55636;51.108;13.622;2023-04-25T03:26:36;6.00;;;4.57;;
68653;SDS011;55636;51.108;13.622;2023-04-25T03:27:38;5.37;;;4.27;;
68653;SDS011;55636;51.108;13.622;2023-04-25T03:28:41;5.17;;;4.57;;
68653;SDS011;55636;51.108;13.622;2023-04-25T03:29:43;7.10;;;4.60;;
68653;SDS011;55636;51.108;13.622;2023-04-25T03:30:46;6.17;;;4.63;;
68653;SDS011;55636;51.108;13.622;2023-04-25T03:31:48;5.10;;;4.27;;
68653;SDS011;55636;51.108;13.622;2023-04-25T03:32:54;5.73;;;4.50;;
68653;SDS011;55636;51.108;13.622;2023-04-25T03:33:57;6.67;;;4.10;;
68653;SDS011;55636;51.108;13.622;2023-04-25T03:34:59;5.03;;;4.10;;
68653;SDS011;55636;51.108;13.622;2023-04-25T03:36:02;7.03;;;4.27;;
68653;SDS011;55636;51.108;13.622;2023-04-25T03:37:05;4.77;;;4.03;;
68653;SDS011;55636;51.108;13.622;2023-04-25T03:38:11;8.80;;;4.60;;
68653;SDS011;55636;51.108;13.622;2023-04-25T03:39:15;6.67;;;4.30;;
68653;SDS011;55636;51.108;13.622;2023-04-25T03:40:22;5.57;;;4.23;;
68653;SDS011;55636;51.108;13.622;2023-04-25T03:41:49;6.20;;;4.50;;
68653;SDS011;55636;51.108;13.622;2023-04-25T03:42:52;5.37;;;4.23;;
68653;SDS011;55636;51.108;13.622;2023-04-25T03:43:55;5.80;;;4.40;;
68653;SDS011;55636;51.108;13.622;2023-04-25T03:44:57;5.00;;;4.20;;
68653;SDS011;55636;51.108;13.622;2023-04-25T03:45:59;4.43;;;4.03;;
68653;SDS011;55636;51.108;13.622;2023-04-25T03:47:02;5.87;;;4.27;;
68653;SDS011;55636;51.108;13.622;2023-04-25T03:48:05;5.20;;;4.33;;
68653;SDS011;55636;51.108;13.622;2023-04-25T03:49:08;6.47;;;4.50;;
68653;SDS011;55636;51.108;13.622;2023-04-25T03:50:29;6.00;;;4.57;;
68653;SDS011;55636;51.108;13.622;2023-04-25T03:51:32;5.57;;;4.40;;
68653;SDS011;55636;51.108;13.622;2023-04-25T03:52:36;5.87;;;4.63;;
68653;SDS011;55636;51.108;13.622;2023-04-25T03:53:38;6.60;;;4.93;;
68653;SDS011;55636;51.108;13.622;2023-04-25T03:54:49;5.60;;;4.60;;
68653;SDS011;55636;51.108;13.622;2023-04-25T03:55:54;6.43;;;4.67;;
68653;SDS011;55636;51.108;13.622;2023-04-25T03:56:56;5.50;;;4.43;;
68653;SDS011;55636;51.108;13.622;2023-04-25T03:58:02;5.73;;;4.80;;
68653;SDS011;55636;51.108;13.622;2023-04-25T03:59:04;5.03;;;4.30;;
68653;SDS011;55636;51.108;13.622;2023-04-25T04:00:06;6.23;;;4.40;;
68653;SDS011;55636;51.108;13.622;2023-04-25T04:01:15;6.53;;;4.90;;
68653;SDS011;55636;51.108;13.622;2023-04-25T04:02:18;6.10;;;4.63;;
68653;SDS011;55636;51.108;13.622;2023-04-25T04:03:20;6.07;;;4.83;;
68653;SDS011;55636;51.108;13.622;2023-04-25T04:04:23;6.50;;;5.00;;
68653;SDS011;55636;51.108;13.622;2023-04-25T04:05:26;7.37;;;5.30;;
68653;SDS011;55636;51.108;13.622;2023-04-25T04:06:30;6.53;;;5.13;;
68653;SDS011;55636;51.108;13.622;2023-04-25T04:07:39;7.10;;;5.33;;
68653;SDS011;55636;51.108;13.622;2023-04-25T04:08:45;6.80;;;5.30;;
68653;SDS011;55636;51.108;13.622;2023-04-25T04:09:48;7.20;;;5.50;;
68653;SDS011;55636;51.108;13.622;2023-04-25T04:10:58;8.77;;;5.30;;
68653;SDS011;55636;51.108;13.622;2023-04-25T04:12:01;7.40;;;4.97;;
68653;SDS011;55636;51.108;13.622;2023-04-25T04:13:06;6.70;;;5.20;;
68653;SDS011;55636;51.108;13.622;2023-04-25T04:14:08;7.73;;;5.40;;
68653;SDS011;55636;51.108;13.622;2023-04-25T04:15:16;5.70;;;5.07;;
68653;SDS011;55636;51.108;13.622;2023-04-25T04:16:19;7.77;;;5.60;;
68653;SDS011;55636;51.108;13.622;2023-04-25T04:17:22;7.53;;;5.00;;
68653;SDS011;55636;51.108;13.622;2023-04-25T04:18:27;7.07;;;5.23;;
68653;SDS011;55636;51.108;13.622;2023-04-25T04:19:30;7.10;;;5.10;;
68653;SDS011;55636;51.108;13.622;2023-04-25T04:20:40;5.27;;;4.50;;
68653;SDS011;55636;51.108;13.622;2023-04-25T04:21:42;7.10;;;5.10;;
68653;SDS011;55636;51.108;13.622;2023-04-25T04:22:45;6.87;;;4.87;;
68653;SDS011;55636;51.108;13.622;2023-04-25T04:23:48;7.03;;;5.00;;
68653;SDS011;55636;51.108;13.622;2023-04-25T04:24:51;5.73;;;5.03;;
68653;SDS011;55636;51.108;13.622;2023-04-25T04:26:02;5.60;;;4.80;;
68653;SDS011;55636;51.108;13.622;2023-04-25T04:27:16;5.40;;;4.87;;
68653;SDS011;55636;51.108;13.622;2023-04-25T04:28:26;5.60;;;4.60;;
68653;SDS011;55636;51.108;13.622;2023-04-25T04:29:36;5.50;;;4.93;;
68653;SDS011;55636;51.108;13.622;2023-04-25T04:30:45;6.03;;;4.83;;
68653;SDS011;55636;51.108;13.622;2023-04-25T04:31:48;6.13;;;4.93;;
68653;SDS011;55636;51.108;13.622;2023-04-25T04:32:51;5.87;;;5.20;;
68653;SDS011;55636;51.108;13.622;2023-04-25T04:33:55;7.37;;;5.23;;
68653;SDS011;55636;51.108;13.622;2023-04-25T04:34:59;6.83;;;5.20;;
68653;SDS011;55636;51.108;13.622;2023-04-25T04:36:02;6.50;;;5.23;;
68653;SDS011;55636;51.108;13.622;2023-04-25T04:37:07;7.33;;;5.33;;
68653;SDS011;55636;51.108;13.622;2023-04-25T04:38:10;6.20;;;5.60;;
68653;SDS011;55636;51.108;13.622;2023-04-25T04:39:13;7.80;;;5.40;;
68653;SDS011;55636;51.108;13.622;2023-04-25T04:40:38;9.73;;;5.77;;
68653;SDS011;55636;51.108;13.622;2023-04-25T04:41:54;6.53;;;5.33;;
68653;SDS011;55636;51.108;13.622;2023-04-25T04:43:15;7.10;;;5.67;;
68653;SDS011;55636;51.108;13.622;2023-04-25T04:44:35;7.20;;;5.30;;
68653;SDS011;55636;51.108;13.622;2023-04-25T04:45:45;5.77;;;4.93;;
68653;SDS011;55636;51.108;13.622;2023-04-25T04:47:14;5.63;;;4.80;;
68653;SDS011;55636;51.108;13.622;2023-04-25T04:48:37;6.57;;;5.07;;
68653;SDS011;55636;51.108;13.622;2023-04-25T04:50:15;6.53;;;5.10;;
68653;SDS011;55636;51.108;13.622;2023-04-25T04:51:37;7.07;;;5.33;;
68653;SDS011;55636;51.108;13.622;2023-04-25T04:52:48;6.83;;;5.30;;
68653;SDS011;55636;51.108;13.622;2023-04-25T04:54:18;6.03;;;5.23;;
68653;SDS011;55636;51.108;13.622;2023-04-25T04:55:56;8.27;;;5.10;;
68653;SDS011;55636;51.108;13.622;2023-04-25T04:57:27;6.27;;;5.30;;
68653;SDS011;55636;51.108;13.622;2023-04-25T04:58:47;7.20;;;5.17;;
68653;SDS011;55636;51.108;13.622;2023-04-25T05:00:02;11.70;;;5.10;;
68653;SDS011;55636;51.108;13.622;2023-04-25T05:01:28;7.60;;;5.40;;
68653;SDS011;55636;51.108;13.622;2023-04-25T05:02:55;6.77;;;5.43;;
68653;SDS011;55636;51.108;13.622;2023-04-25T05:04:05;10.57;;;5.13;;
68653;SDS011;55636;51.108;13.622;2023-04-25T05:05:18;9.93;;;5.53;;
68653;SDS011;55636;51.108;13.622;2023-04-25T05:06:32;10.43;;;5.73;;
68653;SDS011;55636;51.108;13.622;2023-04-25T05:07:54;7.70;;;5.80;;
68653;SDS011;55636;51.108;13.622;2023-04-25T05:09:17;6.93;;;5.33;;
68653;SDS011;55636;51.108;13.622;2023-04-25T05:10:45;9.67;;;5.03;;
68653;SDS011;55636;51.108;13.622;2023-04-25T05:12:10;6.77;;;4.70;;
68653;SDS011;55636;51.108;13.622;2023-04-25T05:13:32;5.53;;;4.97;;
68653;SDS011;55636;51.108;13.622;2023-04-25T05:14:45;6.17;;;4.93;;
68653;SDS011;55636;51.108;13.622;2023-04-25T05:16:05;7.10;;;5.20;;
68653;SDS011;55636;51.108;13.622;2023-04-25T05:17:14;6.93;;;4.80;;
68653;SDS011;55636;51.108;13.622;2023-04-25T05:18:37;7.00;;;5.13;;
68653;SDS011;55636;51.108;13.622;2023-04-25T05:19:45;6.37;;;4.73;;
68653;SDS011;55636;51.108;13.622;2023-04-25T05:21:07;8.10;;;5.10;;
68653;SDS011;55636;51.108;13.622;2023-04-25T05:22:22;7.27;;;5.20;;
68653;SDS011;55636;51.108;13.622;2023-04-25T05:23:53;11.23;;;5.20;;
68653;SDS011;55636;51.108;13.622;2023-04-25T05:25:16;6.40;;;4.77;;
68653;SDS011;55636;51.108;13.622;2023-04-25T05:26:37;7.07;;;4.30;;
68653;SDS011;55636;51.108;13.622;2023-04-25T05:27:59;7.40;;;4.60;;
68653;SDS011;55636;51.108;13.622;2023-04-25T05:29:13;5.27;;;4.57;;
68653;SDS011;55636;51.108;13.622;2023-04-25T05:30:28;8.20;;;4.43;;
68653;SDS011;55636;51.108;13.622;2023-04-25T05:31:37;5.70;;;4.13;;
68653;SDS011;55636;51.108;13.622;2023-04-25T05:32:46;5.67;;;4.50;;
68653;SDS011;55636;51.108;13.622;2023-04-25T05:33:48;10.20;;;4.73;;
68653;SDS011;55636;51.108;13.622;2023-04-25T05:34:52;9.13;;;5.10;;
68653;SDS011;55636;51.108;13.622;2023-04-25T05:35:59;6.50;;;4.50;;
68653;SDS011;55636;51.108;13.622;2023-04-25T05:37:02;9.50;;;4.40;;
68653;SDS011;55636;51.108;13.622;2023-04-25T05:38:06;7.93;;;4.53;;
68653;SDS011;55636;51.108;13.622;2023-04-25T05:39:32;6.23;;;4.50;;
68653;SDS011;55636;51.108;13.622;2023-04-25T05:40:54;5.00;;;4.10;;
68653;SDS011;55636;51.108;13.622;2023-04-25T05:42:13;4.70;;;4.10;;
68653;SDS011;55636;51.108;13.622;2023-04-25T05:43:34;6.72;;;4.43;;
68653;SDS011;55636;51.108;13.622;2023-04-25T05:45:03;5.27;;;4.17;;
68653;SDS011;55636;51.108;13.622;2023-04-25T05:46:25;9.73;;;5.22;;
68653;SDS011;55636;51.108;13.622;2023-04-25T05:47:46;7.60;;;4.30;;
68653;SDS011;55636;51.108;13.622;2023-04-25T05:49:13;5.00;;;3.90;;
68653;SDS011;55636;51.108;13.622;2023-04-25T05:50:36;9.25;;;4.68;;
68653;SDS011;55636;51.108;13.622;2023-04-25T05:51:52;9.18;;;4.68;;
68653;SDS011;55636;51.108;13.622;2023-04-25T05:53:15;5.95;;;4.05;;
68653;SDS011;55636;51.108;13.622;2023-04-25T05:54:18;8.05;;;4.43;;
68653;SDS011;55636;51.108;13.622;2023-04-25T05:55:21;7.03;;;4.20;;
68653;SDS011;55636;51.108;13.622;2023-04-25T05:56:24;5.68;;;4.15;;
68653;SDS011;55636;51.108;13.622;2023-04-25T05:57:27;4.50;;;3.90;;
68653;SDS011;55636;51.108;13.622;2023-04-25T05:58:31;5.95;;;4.18;;
68653;SDS011;55636;51.108;13.622;2023-04-25T05:59:35;6.55;;;4.43;;
68653;SDS011;55636;51.108;13.622;2023-04-25T06:00:37;5.32;;;4.00;;
68653;SDS011;55636;51.108;13.622;2023-04-25T06:01:41;10.07;;;3.88;;
68653;SDS011;55636;51.108;13.622;2023-04-25T06:02:43;6.85;;;3.83;;
68653;SDS011;55636;51.108;13.622;2023-04-25T06:03:48;7.00;;;4.25;;
68653;SDS011;55636;51.108;13.622;2023-04-25T06:04:53;7.00;;;4.22;;
68653;SDS011;55636;51.108;13.622;2023-04-25T06:05:57;5.70;;;4.10;;
68653;SDS011;55636;51.108;13.622;2023-04-25T06:07:00;7.20;;;4.30;;
68653;SDS011;55636;51.108;13.622;2023-04-25T06:08:03;6.43;;;3.95;;
68653;SDS011;55636;51.108;13.622;2023-04-25T06:09:06;4.57;;;3.70;;
68653;SDS011;55636;51.108;13.622;2023-04-25T06:10:09;5.03;;;3.88;;
68653;SDS011;55636;51.108;13.622;2023-04-25T06:11:12;8.07;;;4.40;;
68653;SDS011;55636;51.108;13.622;2023-04-25T06:12:15;8.43;;;4.28;;
68653;SDS011;55636;51.108;13.622;2023-04-25T06:13:17;7.85;;;4.30;;
68653;SDS011;55636;51.108;13.622;2023-04-25T06:14:20;6.03;;;4.40;;
68653;SDS011;55636;51.108;13.622;2023-04-25T06:15:24;6.05;;;4.25;;
68653;SDS011;55636;51.108;13.622;2023-04-25T06:16:30;9.90;;;4.00;;
68653;SDS011;55636;51.108;13.622;2023-04-25T06:17:34;7.13;;;4.65;;
68653;SDS011;55636;51.108;13.622;2023-04-25T06:18:37;6.85;;;4.07;;
68653;SDS011;55636;51.108;13.622;2023-04-25T06:19:42;5.43;;;3.83;;
68653;SDS011;55636;51.108;13.622;2023-04-25T06:20:44;7.28;;;4.10;;
68653;SDS011;55636;51.108;13.622;2023-04-25T06:21:46;5.85;;;3.80;;
68653;SDS011;55636;51.108;13.622;2023-04-25T06:22:49;5.93;;;4.13;;
68653;SDS011;55636;51.108;13.622;2023-04-25T06:23:52;5.30;;;4.00;;
68653;SDS011;55636;51.108;13.622;2023-04-25T06:24:57;6.47;;;4.15;;
68653;SDS011;55636;51.108;13.622;2023-04-25T06:26:02;10.25;;;4.10;;
68653;SDS011;55636;51.108;13.622;2023-04-25T06:27:07;7.10;;;4.53;;
68653;SDS011;55636;51.108;13.622;2023-04-25T06:28:09;5.53;;;4.20;;
68653;SDS011;55636;51.108;13.622;2023-04-25T06:29:11;6.10;;;3.88;;
68653;SDS011;55636;51.108;13.622;2023-04-25T06:30:14;7.15;;;4.20;;
68653;SDS011;55636;51.108;13.622;2023-04-25T06:31:17;5.10;;;3.80;;
68653;SDS011;55636;51.108;13.622;2023-04-25T06:32:22;5.28;;;3.92;;
68653;SDS011;55636;51.108;13.622;2023-04-25T06:33:24;5.03;;;4.05;;